Bei Facebook empfehlenBei Twitter postenGoogle plusPinterest

Das Wetter im Erzgebirge am 21.11.2015

Wetter und Klima am 21.11.2015 Holzhau im Erzgebirge (630m ü.NN)
Letzte gemessene Temperatur und Uhrzeit der Messung23:45:00 Uhr-3.10 °C
Temperatur (Maximum / Höchstwert) und Uhrzeit der Messung13:15:00 Uhr3.10 °C
Temperatur (Minimum / Tiefstwert) und Uhrzeit der Messung23:45:00-3.10 °C
Errechneter Absolutwert der Temperaturschwankungen zwischen Tmin und Tmax des Tages6.20 K
Errechnete Tagesmitteltemperatur0.50625 °C
Gesamt - Niederschlag des Tages (in flüssiger Form)0.00 Liter / m²
Luftdruck (Maximum / Höchstwert) und Zeitpunkt der Messung02:00:00 Uhr994.00 hPa
Luftdruck (Minimum / Tiefstwert) und Zeitpunkt der Messung13:45:00 Uhr991.50 hPa
Errechneter Absolutwert der Luftdruckschwankungen des Tages2.50 hPa
Höchste gemessene Windgeschwindigkeit und Uhrzeit der Messung12:45:00 Uhr10.80 km/h
Errechnete Windhäufigkeit in Relation zu den Messwerten des Tages7.29167 %
Niedrigste Windkühle (Windchill) und Zeitpunkt der Messung23:45:00 Uhr-3.10 °C
Taupunkt (Maximum / Höchstwert) und Uhrzeit der Messung13:15:00 Uhr1.90 °C
Taupunkt (Minimum / Tiefstwert) und Uhrzeit der Messung23:45:00-4.30 °C
Anzahl der automatisch eingelesenen Messwerte 96

Detaillierte Wetter- und Klima- Messwerte für den 21.11.2015 in Holzhau im Erzgebirge (630m ü.NN)
ZeitTemperaturLuftdruckRel. LuftfeuchteWindWindrichtungWindchillTaupunktNiederschlag l/m²
23:45:00-3.10 °C993.70 hPa92.00 %-4.30 °C 
23:30:00-2.80 °C993.80 hPa92.00 %-4.00 °C 
23:15:00-2.70 °C993.70 hPa92.00 %-3.90 °C 
23:00:00-2.40 °C993.80 hPa92.00 %-3.70 °C 
22:45:00-2.20 °C993.70 hPa92.00 %-3.50 °C 
22:30:00-2.20 °C993.70 hPa92.00 %-3.50 °C 
22:15:00-2.30 °C993.50 hPa92.00 %-3.60 °C 
22:00:00-2.10 °C993.50 hPa92.00 %-3.40 °C 
21:45:00-1.70 °C993.60 hPa92.00 %-3.00 °C 
21:30:00-1.20 °C993.70 hPa92.00 %-2.50 °C 
21:15:00-1.10 °C993.50 hPa92.00 %-2.40 °C 
21:00:00-1.20 °C993.60 hPa91.00 %-2.60 °C 
20:45:00-1.10 °C993.50 hPa91.00 %-2.50 °C 
20:30:00-0.80 °C993.30 hPa92.00 %-2.10 °C 
20:15:00-0.50 °C993.10 hPa92.00 %-1.80 °C 
20:00:00-0.10 °C992.70 hPa92.00 %-1.40 °C 
19:45:000.30 °C992.80 hPa92.00 %-0.80 °C 
19:30:000.30 °C992.80 hPa92.00 %-0.80 °C 
19:15:000.40 °C992.80 hPa92.00 %-0.70 °C 
19:00:000.40 °C992.70 hPa91.00 %-0.90 °C 
18:45:000.20 °C992.80 hPa91.00 %-1.10 °C 
18:30:000.10 °C992.80 hPa91.00 %-1.20 °C 
18:15:000.40 °C992.70 hPa91.00 %-0.90 °C 
18:00:000.90 °C992.60 hPa91.00 %-0.40 °C 
17:45:001.00 °C992.80 hPa91.00 %-0.30 °C 
17:30:001.00 °C992.50 hPa91.00 %-0.30 °C 
17:15:001.10 °C992.40 hPa91.00 %-0.20 °C 
17:00:001.20 °C992.40 hPa91.00 %-0.10 °C 
16:45:001.30 °C992.30 hPa91.00 %0.00 °C 
16:30:001.30 °C992.40 hPa91.00 %0.00 °C 
16:15:001.30 °C992.10 hPa91.00 %0.00 °C 
16:00:001.40 °C992.30 hPa91.00 %0.10 °C 
15:45:001.60 °C992.30 hPa91.00 %0.30 °C 
15:30:001.60 °C992.00 hPa91.00 %0.30 °C 
15:15:001.90 °C992.00 hPa91.00 %0.60 °C 
15:00:002.10 °C992.00 hPa91.00 %0.80 °C 
14:45:002.10 °C991.90 hPa91.00 %0.80 °C 
14:30:002.10 °C991.90 hPa91.00 %0.80 °C 
14:15:002.30 °C991.90 hPa91.00 %1.00 °C 
14:00:002.40 °C991.70 hPa91.00 %1.10 °C 
13:45:002.40 °C991.50 hPa91.00 %1.10 °C 
13:30:002.90 °C991.70 hPa92.00 %1.70 °C 
13:15:003.10 °C991.70 hPa92.00 %1.90 °C 
13:00:002.60 °C991.50 hPa92.00 %1.40 °C 
12:45:002.30 °C991.70 hPa93.00 %10.80 km/hWNW-0.80 °C1.30 °C 
12:30:002.20 °C991.60 hPa93.00 %1.20 °C 
12:15:002.00 °C991.70 hPa93.00 %10.44 km/hWNW-1.00 °C1.00 °C 
12:00:002.10 °C991.80 hPa93.00 %1.10 °C 
11:45:002.10 °C992.00 hPa94.00 %3.96 km/hWNW2.10 °C1.20 °C 
11:30:001.80 °C992.30 hPa94.00 %0.90 °C 
11:15:001.60 °C992.50 hPa94.00 %5.76 km/hW-0.10 °C0.70 °C 
11:00:001.80 °C992.70 hPa94.00 %0.90 °C 
10:45:001.80 °C992.60 hPa94.00 %0.90 °C 
10:30:002.10 °C992.70 hPa95.00 %1.40 °C 
10:15:001.30 °C992.70 hPa95.00 %0.60 °C 
10:00:001.00 °C992.90 hPa95.00 %0.30 °C 
09:45:000.90 °C992.90 hPa95.00 %0.20 °C 
09:30:000.90 °C993.00 hPa95.00 %6.48 km/hW-1.20 °C0.20 °C 
09:15:000.80 °C992.90 hPa95.00 %0.10 °C 
09:00:000.80 °C992.80 hPa95.00 %0.10 °C 
08:45:000.50 °C992.90 hPa94.00 %-0.40 °C 
08:30:000.30 °C992.90 hPa94.00 %-0.50 °C 
08:15:000.10 °C992.80 hPa94.00 %-0.70 °C 
08:00:00-0.10 °C992.90 hPa94.00 %-1.00 °C 
07:45:00-0.20 °C992.80 hPa94.00 %-1.10 °C 
07:30:00-0.40 °C992.70 hPa94.00 %-1.30 °C 
07:15:00-0.40 °C992.70 hPa94.00 %-1.30 °C 
07:00:00-0.70 °C992.50 hPa94.00 %-1.60 °C 
06:45:00-0.90 °C992.40 hPa94.00 %-1.80 °C 
06:30:00-0.90 °C992.60 hPa94.00 %-1.80 °C 
06:15:00-0.80 °C992.30 hPa94.00 %-1.70 °C 
06:00:00-1.00 °C992.30 hPa94.00 %-1.90 °C 
05:45:00-1.00 °C992.30 hPa94.00 %-1.90 °C 
05:30:00-0.70 °C992.40 hPa94.00 %-1.60 °C 
05:15:00-0.40 °C992.50 hPa94.00 %-1.30 °C 
05:00:00-0.10 °C992.30 hPa94.00 %-1.00 °C 
04:45:00-0.10 °C992.50 hPa94.00 %-1.00 °C 
04:30:00-0.10 °C992.50 hPa94.00 %-1.00 °C 
04:15:00-0.10 °C992.60 hPa94.00 %-1.00 °C 
04:00:00-0.20 °C992.80 hPa94.00 %-1.10 °C 
03:45:00-0.20 °C992.90 hPa94.00 %-1.10 °C 
03:30:00-0.10 °C993.10 hPa94.00 %-1.00 °C 
03:15:000.20 °C993.30 hPa94.00 %-0.60 °C 
03:00:000.40 °C993.50 hPa94.00 %-0.50 °C 
02:45:000.60 °C993.80 hPa94.00 %-0.30 °C 
02:30:001.10 °C993.80 hPa95.00 %0.40 °C 
02:15:001.30 °C993.80 hPa95.00 %0.60 °C 
02:00:001.30 °C994.00 hPa95.00 %0.60 °C 
01:45:001.40 °C993.80 hPa95.00 %0.70 °C 
01:30:001.60 °C993.70 hPa95.00 %0.90 °C 
01:15:001.60 °C993.60 hPa95.00 %2.16 km/hWNW1.60 °C0.90 °C 
01:00:001.70 °C993.60 hPa95.00 %3.24 km/hNW1.70 °C1.00 °C 
00:45:001.80 °C993.50 hPa95.00 %1.10 °C 
00:30:001.80 °C993.70 hPa95.00 %1.10 °C 
00:15:001.80 °C993.60 hPa95.00 %1.10 °C 
00:00:001.80 °C993.60 hPa95.00 %1.10 °C 

Permanenter Link zu dieser Seite: Wetter im Erzgebirge am 21.11.2015
Performance-Info: Die Erstellung der Seite / Statistik(en) / Tabelle(n) erforderte 5 Datenbankserver-Abfrage(n) und dauerte 101 Millisekunden. (Dieser Messwert ist von der Gesamt-Auslastung des Servers abhängig.)
Erzgebirge - Wetter | Erzgebirge - Wetter (Mobilgeräte) | Komplette Klimadatenbank